Terminal Aerodrome Forecast
Issued by NWS Des Moines, IA

Home | Current Version | Previous Version | Text Only | Print | Product List | Glossary On
Versions: 1 2 3 4 5 6 7 8 9 10 11 12 13 14 15 16 17 18 19 20 21 22 23 24 25 26 27 28 29 30 31 32 33 34 35
794
FTUS43 KDMX 101127 AAA
TAFALO
TAF AMD
KALO 101127Z 1011/1106 VRB04KT P6SM OVC070
     FM101500 VRB06KT P6SM -SHSN SCT035 OVC060
     FM101800 14008KT 3SM -SN SCT018 OVC030
     FM102000 14010KT 1SM -SN OVC013
     FM110200 13011G17KT 3/4SM -SN OVC010=

USA.gov is the U.S. government's official web portal to all federal, state and local government web resources and services.